sensor_id;sensor_type;location;lat;lon;timestamp;temperature;humidity
3478;DHT22;37937;61.490;23.506;2023-08-12T00:01:39;13.90;99.90
3478;DHT22;37937;61.490;23.506;2023-08-12T00:04:04;13.80;99.90
3478;DHT22;37937;61.490;23.506;2023-08-12T00:06:30;13.80;99.90
3478;DHT22;37937;61.490;23.506;2023-08-12T00:08:56;13.80;99.90
3478;DHT22;37937;61.490;23.506;2023-08-12T00:11:21;13.70;99.90
3478;DHT22;37937;61.490;23.506;2023-08-12T00:13:47;13.60;99.90
3478;DHT22;37937;61.490;23.506;2023-08-12T00:16:19;13.60;99.90
3478;DHT22;37937;61.490;23.506;2023-08-12T00:18:44;13.60;99.90
3478;DHT22;37937;61.490;23.506;2023-08-12T00:21:10;13.60;99.90
3478;DHT22;37937;61.490;23.506;2023-08-12T00:23:39;13.50;99.90
3478;DHT22;37937;61.490;23.506;2023-08-12T00:26:09;13.50;99.90
3478;DHT22;37937;61.490;23.506;2023-08-12T00:28:35;13.40;99.90
3478;DHT22;37937;61.490;23.506;2023-08-12T00:31:01;13.40;99.90
3478;DHT22;37937;61.490;23.506;2023-08-12T00:33:26;13.40;99.90
3478;DHT22;37937;61.490;23.506;2023-08-12T00:35:52;13.30;99.90
3478;DHT22;37937;61.490;23.506;2023-08-12T00:38:18;13.30;99.90
3478;DHT22;37937;61.490;23.506;2023-08-12T00:40:43;13.30;99.90
3478;DHT22;37937;61.490;23.506;2023-08-12T00:43:09;13.20;99.90
3478;DHT22;37937;61.490;23.506;2023-08-12T00:45:35;13.20;99.90
3478;DHT22;37937;61.490;23.506;2023-08-12T00:48:01;13.10;99.90
3478;DHT22;37937;61.490;23.506;2023-08-12T00:50:26;13.10;99.90
3478;DHT22;37937;61.490;23.506;2023-08-12T00:52:52;13.00;99.90
3478;DHT22;37937;61.490;23.506;2023-08-12T00:55:18;13.00;99.90
3478;DHT22;37937;61.490;23.506;2023-08-12T00:57:43;13.00;99.90
3478;DHT22;37937;61.490;23.506;2023-08-12T01:00:09;13.00;99.90
3478;DHT22;37937;61.490;23.506;2023-08-12T01:02:35;12.90;99.90
3478;DHT22;37937;61.490;23.506;2023-08-12T01:05:01;13.00;99.90
3478;DHT22;37937;61.490;23.506;2023-08-12T01:07:26;13.00;99.90
3478;DHT22;37937;61.490;23.506;2023-08-12T01:09:52;12.90;99.90
3478;DHT22;37937;61.490;23.506;2023-08-12T01:12:24;12.90;99.90
3478;DHT22;37937;61.490;23.506;2023-08-12T01:17:26;12.90;99.90
3478;DHT22;37937;61.490;23.506;2023-08-12T01:19:54;12.90;99.90
3478;DHT22;37937;61.490;23.506;2023-08-12T01:22:20;12.80;99.90
3478;DHT22;37937;61.490;23.506;2023-08-12T01:24:46;12.80;99.90
3478;DHT22;37937;61.490;23.506;2023-08-12T01:27:12;12.70;99.90
3478;DHT22;37937;61.490;23.506;2023-08-12T01:29:39;12.70;99.90
3478;DHT22;37937;61.490;23.506;2023-08-12T01:34:50;12.60;99.90
3478;DHT22;37937;61.490;23.506;2023-08-12T01:37:23;12.50;99.90
3478;DHT22;37937;61.490;23.506;2023-08-12T01:39:49;12.40;99.90
3478;DHT22;37937;61.490;23.506;2023-08-12T01:42:16;12.40;99.90
3478;DHT22;37937;61.490;23.506;2023-08-12T01:44:42;12.40;99.90
3478;DHT22;37937;61.490;23.506;2023-08-12T01:47:08;12.40;99.90
3478;DHT22;37937;61.490;23.506;2023-08-12T01:49:34;12.40;99.90
3478;DHT22;37937;61.490;23.506;2023-08-12T01:52:00;12.30;99.90
3478;DHT22;37937;61.490;23.506;2023-08-12T01:54:26;12.30;99.90
3478;DHT22;37937;61.490;23.506;2023-08-12T01:56:51;12.20;99.90
3478;DHT22;37937;61.490;23.506;2023-08-12T01:59:17;12.30;99.90
3478;DHT22;37937;61.490;23.506;2023-08-12T02:01:43;12.20;99.90
3478;DHT22;37937;61.490;23.506;2023-08-12T02:04:08;12.30;99.90
3478;DHT22;37937;61.490;23.506;2023-08-12T02:06:34;12.30;99.90
3478;DHT22;37937;61.490;23.506;2023-08-12T02:09:00;12.30;99.90
3478;DHT22;37937;61.490;23.506;2023-08-12T02:11:25;12.30;99.90
3478;DHT22;37937;61.490;23.506;2023-08-12T02:13:51;12.20;99.90
3478;DHT22;37937;61.490;23.506;2023-08-12T02:16:16;12.20;99.90
3478;DHT22;37937;61.490;23.506;2023-08-12T02:18:42;12.20;99.90
3478;DHT22;37937;61.490;23.506;2023-08-12T02:21:08;12.10;99.90
3478;DHT22;37937;61.490;23.506;2023-08-12T02:23:33;12.20;99.90
3478;DHT22;37937;61.490;23.506;2023-08-12T02:25:59;12.20;99.90
3478;DHT22;37937;61.490;23.506;2023-08-12T02:28:25;12.20;99.90
3478;DHT22;37937;61.490;23.506;2023-08-12T02:30:51;12.10;99.90
3478;DHT22;37937;61.490;23.506;2023-08-12T02:33:16;12.10;99.90
3478;DHT22;37937;61.490;23.506;2023-08-12T02:35:42;12.20;99.90
3478;DHT22;37937;61.490;23.506;2023-08-12T02:38:08;12.10;99.90
3478;DHT22;37937;61.490;23.506;2023-08-12T02:40:33;12.10;99.90
3478;DHT22;37937;61.490;23.506;2023-08-12T02:42:59;12.00;99.90
3478;DHT22;37937;61.490;23.506;2023-08-12T02:45:25;12.10;99.90
3478;DHT22;37937;61.490;23.506;2023-08-12T02:47:50;12.00;99.90
3478;DHT22;37937;61.490;23.506;2023-08-12T02:50:16;12.00;99.90
3478;DHT22;37937;61.490;23.506;2023-08-12T02:52:42;11.90;99.90
3478;DHT22;37937;61.490;23.506;2023-08-12T02:55:07;11.90;99.90
3478;DHT22;37937;61.490;23.506;2023-08-12T02:57:33;11.90;99.90
3478;DHT22;37937;61.490;23.506;2023-08-12T02:59:59;12.00;99.90
3478;DHT22;37937;61.490;23.506;2023-08-12T03:02:24;11.90;99.90
3478;DHT22;37937;61.490;23.506;2023-08-12T03:04:50;11.90;99.90
3478;DHT22;37937;61.490;23.506;2023-08-12T03:07:16;11.90;99.90
3478;DHT22;37937;61.490;23.506;2023-08-12T03:09:41;11.90;99.90
3478;DHT22;37937;61.490;23.506;2023-08-12T03:12:07;11.90;99.90
3478;DHT22;37937;61.490;23.506;2023-08-12T03:14:33;11.90;99.90
3478;DHT22;37937;61.490;23.506;2023-08-12T03:16:58;11.90;99.90
3478;DHT22;37937;61.490;23.506;2023-08-12T03:19:24;11.90;99.90
3478;DHT22;37937;61.490;23.506;2023-08-12T03:21:49;11.90;99.90
3478;DHT22;37937;61.490;23.506;2023-08-12T03:24:15;11.90;99.90
3478;DHT22;37937;61.490;23.506;2023-08-12T03:26:41;12.00;99.90
3478;DHT22;37937;61.490;23.506;2023-08-12T03:29:06;11.90;99.90
3478;DHT22;37937;61.490;23.506;2023-08-12T03:31:32;12.00;99.90
3478;DHT22;37937;61.490;23.506;2023-08-12T03:33:57;12.00;99.90
3478;DHT22;37937;61.490;23.506;2023-08-12T03:36:23;12.00;99.90
3478;DHT22;37937;61.490;23.506;2023-08-12T03:38:49;12.00;99.90
3478;DHT22;37937;61.490;23.506;2023-08-12T03:41:14;12.00;99.90
3478;DHT22;37937;61.490;23.506;2023-08-12T03:43:40;12.00;99.90
3478;DHT22;37937;61.490;23.506;2023-08-12T03:46:06;12.10;99.90
3478;DHT22;37937;61.490;23.506;2023-08-12T03:48:31;12.10;99.90
3478;DHT22;37937;61.490;23.506;2023-08-12T03:50:57;12.10;99.90
3478;DHT22;37937;61.490;23.506;2023-08-12T03:53:22;12.10;99.90
3478;DHT22;37937;61.490;23.506;2023-08-12T03:55:48;12.20;99.90
3478;DHT22;37937;61.490;23.506;2023-08-12T03:58:14;12.20;99.90
3478;DHT22;37937;61.490;23.506;2023-08-12T04:00:42;12.30;99.90
3478;DHT22;37937;61.490;23.506;2023-08-12T04:03:08;12.30;99.90
3478;DHT22;37937;61.490;23.506;2023-08-12T04:05:34;12.50;99.90
3478;DHT22;37937;61.490;23.506;2023-08-12T04:08:00;12.60;99.90
3478;DHT22;37937;61.490;23.506;2023-08-12T04:10:25;12.70;99.90
3478;DHT22;37937;61.490;23.506;2023-08-12T04:12:51;12.90;99.90
3478;DHT22;37937;61.490;23.506;2023-08-12T04:15:17;13.20;99.90
3478;DHT22;37937;61.490;23.506;2023-08-12T04:17:42;13.50;99.90
3478;DHT22;37937;61.490;23.506;2023-08-12T04:20:08;13.70;99.90
3478;DHT22;37937;61.490;23.506;2023-08-12T04:22:34;14.10;99.90
3478;DHT22;37937;61.490;23.506;2023-08-12T04:25:00;14.60;99.90
3478;DHT22;37937;61.490;23.506;2023-08-12T04:27:26;14.80;99.90
3478;DHT22;37937;61.490;23.506;2023-08-12T04:29:51;15.30;99.90
3478;DHT22;37937;61.490;23.506;2023-08-12T04:32:17;15.30;99.90
3478;DHT22;37937;61.490;23.506;2023-08-12T04:34:44;15.70;99.90
3478;DHT22;37937;61.490;23.506;2023-08-12T04:37:09;15.90;99.90
3478;DHT22;37937;61.490;23.506;2023-08-12T04:39:35;15.70;99.90
3478;DHT22;37937;61.490;23.506;2023-08-12T04:42:01;15.60;99.90
3478;DHT22;37937;61.490;23.506;2023-08-12T04:44:26;15.70;99.90
3478;DHT22;37937;61.490;23.506;2023-08-12T04:46:52;16.00;99.90
3478;DHT22;37937;61.490;23.506;2023-08-12T04:49:18;16.50;99.90
3478;DHT22;37937;61.490;23.506;2023-08-12T04:51:43;16.40;99.90
3478;DHT22;37937;61.490;23.506;2023-08-12T04:54:09;16.90;99.90
3478;DHT22;37937;61.490;23.506;2023-08-12T04:56:35;16.60;99.90
3478;DHT22;37937;61.490;23.506;2023-08-12T04:59:03;16.70;99.90
3478;DHT22;37937;61.490;23.506;2023-08-12T05:01:29;17.40;99.90
3478;DHT22;37937;61.490;23.506;2023-08-12T05:03:55;17.70;99.90
3478;DHT22;37937;61.490;23.506;2023-08-12T05:06:20;17.60;99.90
3478;DHT22;37937;61.490;23.506;2023-08-12T05:08:46;17.40;99.90
3478;DHT22;37937;61.490;23.506;2023-08-12T05:11:11;17.00;99.90
3478;DHT22;37937;61.490;23.506;2023-08-12T05:13:37;16.90;99.90
3478;DHT22;37937;61.490;23.506;2023-08-12T05:16:03;17.00;99.90
3478;DHT22;37937;61.490;23.506;2023-08-12T05:18:28;17.10;99.90
3478;DHT22;37937;61.490;23.506;2023-08-12T05:20:54;16.50;99.90
3478;DHT22;37937;61.490;23.506;2023-08-12T05:23:20;16.80;99.90
3478;DHT22;37937;61.490;23.506;2023-08-12T05:25:46;16.30;99.90
3478;DHT22;37937;61.490;23.506;2023-08-12T05:28:12;16.40;99.90
3478;DHT22;37937;61.490;23.506;2023-08-12T05:30:38;16.70;99.90
3478;DHT22;37937;61.490;23.506;2023-08-12T05:33:04;17.20;99.90
3478;DHT22;37937;61.490;23.506;2023-08-12T05:35:33;16.90;99.90
3478;DHT22;37937;61.490;23.506;2023-08-12T05:37:59;16.90;99.90
3478;DHT22;37937;61.490;23.506;2023-08-12T05:40:24;17.50;99.90
3478;DHT22;37937;61.490;23.506;2023-08-12T05:42:50;18.00;99.90
3478;DHT22;37937;61.490;23.506;2023-08-12T05:45:15;18.10;99.90
3478;DHT22;37937;61.490;23.506;2023-08-12T05:47:41;17.40;99.90
3478;DHT22;37937;61.490;23.506;2023-08-12T05:50:07;17.90;99.90
3478;DHT22;37937;61.490;23.506;2023-08-12T05:52:32;17.90;99.90
3478;DHT22;37937;61.490;23.506;2023-08-12T05:54:58;17.40;99.90
3478;DHT22;37937;61.490;23.506;2023-08-12T05:57:24;17.60;99.90
3478;DHT22;37937;61.490;23.506;2023-08-12T05:59:49;17.90;99.90
3478;DHT22;37937;61.490;23.506;2023-08-12T06:02:15;18.00;99.90
3478;DHT22;37937;61.490;23.506;2023-08-12T06:04:40;18.40;99.90
3478;DHT22;37937;61.490;23.506;2023-08-12T06:07:06;18.90;99.90
3478;DHT22;37937;61.490;23.506;2023-08-12T06:09:32;19.20;99.90
3478;DHT22;37937;61.490;23.506;2023-08-12T06:11:57;19.70;97.60
3478;DHT22;37937;61.490;23.506;2023-08-12T06:14:23;19.60;91.30
3478;DHT22;37937;61.490;23.506;2023-08-12T06:16:49;19.70;91.00
3478;DHT22;37937;61.490;23.506;2023-08-12T06:19:14;19.90;80.50
3478;DHT22;37937;61.490;23.506;2023-08-12T06:21:40;19.90;83.10
3478;DHT22;37937;61.490;23.506;2023-08-12T06:24:06;19.30;85.90
3478;DHT22;37937;61.490;23.506;2023-08-12T06:26:31;18.70;86.90
3478;DHT22;37937;61.490;23.506;2023-08-12T06:28:59;18.40;95.10
3478;DHT22;37937;61.490;23.506;2023-08-12T06:31:24;17.60;93.90
3478;DHT22;37937;61.490;23.506;2023-08-12T06:33:50;17.80;97.50
3478;DHT22;37937;61.490;23.506;2023-08-12T06:36:16;18.40;97.50
3478;DHT22;37937;61.490;23.506;2023-08-12T06:38:41;18.60;98.30
3478;DHT22;37937;61.490;23.506;2023-08-12T06:41:07;18.70;95.20
3478;DHT22;37937;61.490;23.506;2023-08-12T06:43:33;18.80;92.70
3478;DHT22;37937;61.490;23.506;2023-08-12T06:45:58;19.00;92.00
3478;DHT22;37937;61.490;23.506;2023-08-12T06:48:24;18.50;93.50
3478;DHT22;37937;61.490;23.506;2023-08-12T06:50:56;18.80;91.90
3478;DHT22;37937;61.490;23.506;2023-08-12T06:53:21;19.00;90.70
3478;DHT22;37937;61.490;23.506;2023-08-12T06:55:47;18.50;92.00
3478;DHT22;37937;61.490;23.506;2023-08-12T06:58:13;17.80;97.10
3478;DHT22;37937;61.490;23.506;2023-08-12T07:00:39;18.20;98.20
3478;DHT22;37937;61.490;23.506;2023-08-12T07:03:05;18.40;97.20
3478;DHT22;37937;61.490;23.506;2023-08-12T07:05:30;17.50;91.80
3478;DHT22;37937;61.490;23.506;2023-08-12T07:07:59;18.20;92.90
3478;DHT22;37937;61.490;23.506;2023-08-12T07:10:25;18.50;90.30
3478;DHT22;37937;61.490;23.506;2023-08-12T07:12:50;18.60;74.50
3478;DHT22;37937;61.490;23.506;2023-08-12T07:15:17;18.50;81.50
3478;DHT22;37937;61.490;23.506;2023-08-12T07:17:42;18.50;91.20
3478;DHT22;37937;61.490;23.506;2023-08-12T07:20:08;18.70;78.70
3478;DHT22;37937;61.490;23.506;2023-08-12T07:22:34;19.10;70.30
3478;DHT22;37937;61.490;23.506;2023-08-12T07:24:59;19.00;71.60
3478;DHT22;37937;61.490;23.506;2023-08-12T07:27:25;19.10;63.00
3478;DHT22;37937;61.490;23.506;2023-08-12T07:29:51;18.80;70.40
3478;DHT22;37937;61.490;23.506;2023-08-12T07:32:19;18.90;64.30
3478;DHT22;37937;61.490;23.506;2023-08-12T07:34:45;18.70;73.30
3478;DHT22;37937;61.490;23.506;2023-08-12T07:37:10;18.50;69.80
3478;DHT22;37937;61.490;23.506;2023-08-12T07:39:36;18.70;77.20
3478;DHT22;37937;61.490;23.506;2023-08-12T07:42:02;18.60;63.80
3478;DHT22;37937;61.490;23.506;2023-08-12T07:44:28;18.40;59.40
3478;DHT22;37937;61.490;23.506;2023-08-12T07:46:54;17.90;66.60
3478;DHT22;37937;61.490;23.506;2023-08-12T07:49:19;18.40;80.80
3478;DHT22;37937;61.490;23.506;2023-08-12T07:51:45;18.70;85.40
3478;DHT22;37937;61.490;23.506;2023-08-12T07:54:11;18.70;71.30
3478;DHT22;37937;61.490;23.506;2023-08-12T07:56:37;19.10;66.80
3478;DHT22;37937;61.490;23.506;2023-08-12T07:59:03;19.20;58.90
3478;DHT22;37937;61.490;23.506;2023-08-12T08:01:29;19.60;72.60
3478;DHT22;37937;61.490;23.506;2023-08-12T08:03:54;19.50;63.70
3478;DHT22;37937;61.490;23.506;2023-08-12T08:06:20;19.50;66.30
3478;DHT22;37937;61.490;23.506;2023-08-12T08:08:45;19.20;58.20
3478;DHT22;37937;61.490;23.506;2023-08-12T08:11:11;19.60;52.80
3478;DHT22;37937;61.490;23.506;2023-08-12T08:13:37;19.70;52.60
3478;DHT22;37937;61.490;23.506;2023-08-12T08:16:03;19.40;57.00
3478;DHT22;37937;61.490;23.506;2023-08-12T08:18:28;19.60;48.30
3478;DHT22;37937;61.490;23.506;2023-08-12T08:20:54;20.20;52.20
3478;DHT22;37937;61.490;23.506;2023-08-12T08:23:19;19.60;35.90
3478;DHT22;37937;61.490;23.506;2023-08-12T08:25:45;19.70;49.70
3478;DHT22;37937;61.490;23.506;2023-08-12T08:28:11;20.00;48.40
3478;DHT22;37937;61.490;23.506;2023-08-12T08:30:36;20.20;52.70
3478;DHT22;37937;61.490;23.506;2023-08-12T08:33:02;20.50;46.00
3478;DHT22;37937;61.490;23.506;2023-08-12T08:35:28;20.70;50.20
3478;DHT22;37937;61.490;23.506;2023-08-12T08:37:54;21.10;44.80
3478;DHT22;37937;61.490;23.506;2023-08-12T08:40:20;20.90;31.40
3478;DHT22;37937;61.490;23.506;2023-08-12T08:42:45;20.00;31.80
3478;DHT22;37937;61.490;23.506;2023-08-12T08:45:13;19.60;33.40
3478;DHT22;37937;61.490;23.506;2023-08-12T08:47:39;20.10;33.80
3478;DHT22;37937;61.490;23.506;2023-08-12T08:50:06;20.20;40.20
3478;DHT22;37937;61.490;23.506;2023-08-12T08:52:32;20.50;38.10
3478;DHT22;37937;61.490;23.506;2023-08-12T08:54:58;20.50;35.30
3478;DHT22;37937;61.490;23.506;2023-08-12T08:57:25;20.60;33.20
3478;DHT22;37937;61.490;23.506;2023-08-12T08:59:53;20.80;33.10
3478;DHT22;37937;61.490;23.506;2023-08-12T09:02:19;21.00;32.50
3478;DHT22;37937;61.490;23.506;2023-08-12T09:04:45;21.30;22.80
3478;DHT22;37937;61.490;23.506;2023-08-12T09:07:11;21.00;24.20
3478;DHT22;37937;61.490;23.506;2023-08-12T09:09:38;22.00;27.90
3478;DHT22;37937;61.490;23.506;2023-08-12T09:12:04;22.20;22.40
3478;DHT22;37937;61.490;23.506;2023-08-12T09:14:29;22.60;20.30
3478;DHT22;37937;61.490;23.506;2023-08-12T09:16:55;22.60;19.50
3478;DHT22;37937;61.490;23.506;2023-08-12T09:19:21;22.60;20.80
3478;DHT22;37937;61.490;23.506;2023-08-12T09:21:53;22.10;17.30
3478;DHT22;37937;61.490;23.506;2023-08-12T09:24:25;21.40;18.60
3478;DHT22;37937;61.490;23.506;2023-08-12T09:26:52;21.10;15.90
3478;DHT22;37937;61.490;23.506;2023-08-12T09:29:17;21.70;21.10
3478;DHT22;37937;61.490;23.506;2023-08-12T09:31:43;21.80;15.90
3478;DHT22;37937;61.490;23.506;2023-08-12T09:34:09;21.30;18.20
3478;DHT22;37937;61.490;23.506;2023-08-12T09:36:34;22.10;18.20
3478;DHT22;37937;61.490;23.506;2023-08-12T09:39:06;22.00;17.10
3478;DHT22;37937;61.490;23.506;2023-08-12T09:41:32;21.80;13.90
3478;DHT22;37937;61.490;23.506;2023-08-12T09:43:58;22.00;17.00
3478;DHT22;37937;61.490;23.506;2023-08-12T09:46:23;21.50;12.80
3478;DHT22;37937;61.490;23.506;2023-08-12T09:48:50;22.60;14.90
3478;DHT22;37937;61.490;23.506;2023-08-12T09:51:16;22.90;7.80
3478;DHT22;37937;61.490;23.506;2023-08-12T09:53:42;22.80;10.80
3478;DHT22;37937;61.490;23.506;2023-08-12T09:56:07;22.60;8.30
3478;DHT22;37937;61.490;23.506;2023-08-12T09:58:34;22.50;9.50
3478;DHT22;37937;61.490;23.506;2023-08-12T10:01:02;22.60;3.40
3478;DHT22;37937;61.490;23.506;2023-08-12T10:03:28;22.30;4.50
3478;DHT22;37937;61.490;23.506;2023-08-12T10:05:54;22.90;8.60
3478;DHT22;37937;61.490;23.506;2023-08-12T10:08:20;22.70;1.00
3478;DHT22;37937;61.490;23.506;2023-08-12T10:10:46;22.80;4.40
3478;DHT22;37937;61.490;23.506;2023-08-12T10:13:11;23.20;4.70
3478;DHT22;37937;61.490;23.506;2023-08-12T10:15:37;22.90;2.00
3478;DHT22;37937;61.490;23.506;2023-08-12T10:18:04;23.20;5.10
3478;DHT22;37937;61.490;23.506;2023-08-12T10:20:31;23.10;2.70
3478;DHT22;37937;61.490;23.506;2023-08-12T10:22:57;22.90;3.60
3478;DHT22;37937;61.490;23.506;2023-08-12T10:25:24;22.20;1.00
3478;DHT22;37937;61.490;23.506;2023-08-12T10:27:50;22.90;1.60
3478;DHT22;37937;61.490;23.506;2023-08-12T10:30:17;23.70;3.50
3478;DHT22;37937;61.490;23.506;2023-08-12T10:32:42;24.40;1.00
3478;DHT22;37937;61.490;23.506;2023-08-12T10:35:08;23.10;1.00
3478;DHT22;37937;61.490;23.506;2023-08-12T10:37:34;23.40;1.00
3478;DHT22;37937;61.490;23.506;2023-08-12T10:40:04;23.10;1.00
3478;DHT22;37937;61.490;23.506;2023-08-12T10:42:42;23.70;1.00
3478;DHT22;37937;61.490;23.506;2023-08-12T10:45:09;23.80;1.00
3478;DHT22;37937;61.490;23.506;2023-08-12T10:47:49;23.70;1.00
3478;DHT22;37937;61.490;23.506;2023-08-12T10:50:21;23.90;1.00
3478;DHT22;37937;61.490;23.506;2023-08-12T10:52:47;23.90;1.00
3478;DHT22;37937;61.490;23.506;2023-08-12T10:57:41;24.20;1.00
3478;DHT22;37937;61.490;23.506;2023-08-12T11:00:10;24.60;1.00
3478;DHT22;37937;61.490;23.506;2023-08-12T11:02:36;24.30;1.00
3478;DHT22;37937;61.490;23.506;2023-08-12T11:05:09;23.70;1.00
3478;DHT22;37937;61.490;23.506;2023-08-12T11:07:39;23.70;1.00
3478;DHT22;37937;61.490;23.506;2023-08-12T11:10:09;23.80;1.00
3478;DHT22;37937;61.490;23.506;2023-08-12T11:12:36;23.90;1.00
3478;DHT22;37937;61.490;23.506;2023-08-12T11:15:02;23.30;1.00
3478;DHT22;37937;61.490;23.506;2023-08-12T11:17:31;23.10;1.00
3478;DHT22;37937;61.490;23.506;2023-08-12T11:19:57;23.10;1.00
3478;DHT22;37937;61.490;23.506;2023-08-12T11:22:23;23.00;1.00
3478;DHT22;37937;61.490;23.506;2023-08-12T11:24:50;22.70;1.00
3478;DHT22;37937;61.490;23.506;2023-08-12T11:27:16;22.90;1.00
3478;DHT22;37937;61.490;23.506;2023-08-12T11:29:43;23.40;1.00
3478;DHT22;37937;61.490;23.506;2023-08-12T11:32:09;22.70;1.00
3478;DHT22;37937;61.490;23.506;2023-08-12T11:34:35;22.50;1.00
3478;DHT22;37937;61.490;23.506;2023-08-12T11:37:02;22.70;1.00
3478;DHT22;37937;61.490;23.506;2023-08-12T11:39:28;22.80;1.00
3478;DHT22;37937;61.490;23.506;2023-08-12T11:41:54;22.50;1.00
3478;DHT22;37937;61.490;23.506;2023-08-12T11:44:22;23.10;1.00
3478;DHT22;37937;61.490;23.506;2023-08-12T11:46:49;23.30;1.00
3478;DHT22;37937;61.490;23.506;2023-08-12T11:49:14;22.70;1.00
3478;DHT22;37937;61.490;23.506;2023-08-12T11:51:40;22.70;1.00
3478;DHT22;37937;61.490;23.506;2023-08-12T11:54:07;23.20;1.00
3478;DHT22;37937;61.490;23.506;2023-08-12T11:56:32;23.40;1.00
3478;DHT22;37937;61.490;23.506;2023-08-12T11:58:59;23.10;1.00
3478;DHT22;37937;61.490;23.506;2023-08-12T12:01:24;22.80;1.00
3478;DHT22;37937;61.490;23.506;2023-08-12T12:03:53;22.90;1.00
3478;DHT22;37937;61.490;23.506;2023-08-12T12:06:37;22.60;1.00
3478;DHT22;37937;61.490;23.506;2023-08-12T12:09:06;23.00;1.00
3478;DHT22;37937;61.490;23.506;2023-08-12T12:11:32;23.00;1.00
3478;DHT22;37937;61.490;23.506;2023-08-12T12:14:02;23.20;1.00
3478;DHT22;37937;61.490;23.506;2023-08-12T12:16:41;22.90;1.00
3478;DHT22;37937;61.490;23.506;2023-08-12T12:19:17;23.10;1.00
3478;DHT22;37937;61.490;23.506;2023-08-12T12:21:44;23.90;1.00
3478;DHT22;37937;61.490;23.506;2023-08-12T12:24:10;23.90;1.00
3478;DHT22;37937;61.490;23.506;2023-08-12T12:26:36;23.30;1.00
3478;DHT22;37937;61.490;23.506;2023-08-12T12:29:02;23.50;1.00
3478;DHT22;37937;61.490;23.506;2023-08-12T12:31:28;23.10;1.00
3478;DHT22;37937;61.490;23.506;2023-08-12T12:33:54;22.80;1.00
3478;DHT22;37937;61.490;23.506;2023-08-12T12:36:20;22.30;1.00
3478;DHT22;37937;61.490;23.506;2023-08-12T12:38:45;22.50;1.00
3478;DHT22;37937;61.490;23.506;2023-08-12T12:41:11;22.60;1.00
3478;DHT22;37937;61.490;23.506;2023-08-12T12:43:36;22.10;1.00
3478;DHT22;37937;61.490;23.506;2023-08-12T12:46:02;21.90;1.00
3478;DHT22;37937;61.490;23.506;2023-08-12T12:48:28;21.40;1.00
3478;DHT22;37937;61.490;23.506;2023-08-12T12:50:53;21.40;1.00
3478;DHT22;37937;61.490;23.506;2023-08-12T12:53:19;21.80;1.00
3478;DHT22;37937;61.490;23.506;2023-08-12T12:55:45;21.80;1.00
3478;DHT22;37937;61.490;23.506;2023-08-12T12:58:10;22.00;1.00
3478;DHT22;37937;61.490;23.506;2023-08-12T13:00:36;22.00;1.00
3478;DHT22;37937;61.490;23.506;2023-08-12T13:03:01;21.80;1.00
3478;DHT22;37937;61.490;23.506;2023-08-12T13:05:27;22.00;1.00
3478;DHT22;37937;61.490;23.506;2023-08-12T13:07:53;21.90;1.00
3478;DHT22;37937;61.490;23.506;2023-08-12T13:10:19;21.60;1.00
3478;DHT22;37937;61.490;23.506;2023-08-12T13:12:44;21.50;1.00
3478;DHT22;37937;61.490;23.506;2023-08-12T13:15:10;21.50;1.00
3478;DHT22;37937;61.490;23.506;2023-08-12T13:17:36;21.60;1.00
3478;DHT22;37937;61.490;23.506;2023-08-12T13:20:01;21.60;1.00
3478;DHT22;37937;61.490;23.506;2023-08-12T13:22:28;21.30;4.40
3478;DHT22;37937;61.490;23.506;2023-08-12T13:24:53;20.90;4.30
3478;DHT22;37937;61.490;23.506;2023-08-12T13:27:19;21.10;5.80
3478;DHT22;37937;61.490;23.506;2023-08-12T13:29:45;21.00;6.70
3478;DHT22;37937;61.490;23.506;2023-08-12T13:32:10;20.80;3.50
3478;DHT22;37937;61.490;23.506;2023-08-12T13:34:37;20.90;7.40
3478;DHT22;37937;61.490;23.506;2023-08-12T13:37:02;21.00;7.20
3478;DHT22;37937;61.490;23.506;2023-08-12T13:39:28;21.20;8.30
3478;DHT22;37937;61.490;23.506;2023-08-12T13:41:53;21.10;8.30
3478;DHT22;37937;61.490;23.506;2023-08-12T13:44:20;21.30;8.10
3478;DHT22;37937;61.490;23.506;2023-08-12T13:46:46;21.20;7.90
3478;DHT22;37937;61.490;23.506;2023-08-12T13:49:11;21.30;4.80
3478;DHT22;37937;61.490;23.506;2023-08-12T13:51:37;21.20;9.70
3478;DHT22;37937;61.490;23.506;2023-08-12T13:54:02;21.40;10.10
3478;DHT22;37937;61.490;23.506;2023-08-12T13:56:28;21.40;11.00
3478;DHT22;37937;61.490;23.506;2023-08-12T13:58:54;21.30;8.90
3478;DHT22;37937;61.490;23.506;2023-08-12T14:01:19;21.10;7.20
3478;DHT22;37937;61.490;23.506;2023-08-12T14:03:45;21.10;6.00
3478;DHT22;37937;61.490;23.506;2023-08-12T14:06:11;21.20;7.90
3478;DHT22;37937;61.490;23.506;2023-08-12T14:08:36;20.80;7.10
3478;DHT22;37937;61.490;23.506;2023-08-12T14:11:02;20.90;7.80
3478;DHT22;37937;61.490;23.506;2023-08-12T14:13:27;20.70;6.40
3478;DHT22;37937;61.490;23.506;2023-08-12T14:15:53;20.50;4.50
3478;DHT22;37937;61.490;23.506;2023-08-12T14:18:19;20.60;6.10
3478;DHT22;37937;61.490;23.506;2023-08-12T14:20:44;20.90;7.60
3478;DHT22;37937;61.490;23.506;2023-08-12T14:23:10;21.10;6.20
3478;DHT22;37937;61.490;23.506;2023-08-12T14:25:36;20.80;2.50
3478;DHT22;37937;61.490;23.506;2023-08-12T14:28:01;20.60;2.60
3478;DHT22;37937;61.490;23.506;2023-08-12T14:30:27;20.50;5.90
3478;DHT22;37937;61.490;23.506;2023-08-12T14:32:53;20.40;5.90
3478;DHT22;37937;61.490;23.506;2023-08-12T14:35:18;20.50;5.60
3478;DHT22;37937;61.490;23.506;2023-08-12T14:37:44;20.40;7.00
3478;DHT22;37937;61.490;23.506;2023-08-12T14:40:10;20.50;7.80
3478;DHT22;37937;61.490;23.506;2023-08-12T14:42:36;20.50;6.50
3478;DHT22;37937;61.490;23.506;2023-08-12T14:45:02;20.60;9.70
3478;DHT22;37937;61.490;23.506;2023-08-12T14:47:27;20.30;6.30
3478;DHT22;37937;61.490;23.506;2023-08-12T14:49:53;20.20;9.70
3478;DHT22;37937;61.490;23.506;2023-08-12T14:52:19;20.30;8.50
3478;DHT22;37937;61.490;23.506;2023-08-12T14:54:45;20.50;10.80
3478;DHT22;37937;61.490;23.506;2023-08-12T14:57:11;20.50;13.00
3478;DHT22;37937;61.490;23.506;2023-08-12T14:59:37;20.40;13.70
3478;DHT22;37937;61.490;23.506;2023-08-12T15:02:03;20.30;13.60
3478;DHT22;37937;61.490;23.506;2023-08-12T15:04:29;20.20;12.00
3478;DHT22;37937;61.490;23.506;2023-08-12T15:06:55;20.30;15.50
3478;DHT22;37937;61.490;23.506;2023-08-12T15:09:20;20.30;15.20
3478;DHT22;37937;61.490;23.506;2023-08-12T15:11:46;20.30;18.00
3478;DHT22;37937;61.490;23.506;2023-08-12T15:14:12;20.20;15.90
3478;DHT22;37937;61.490;23.506;2023-08-12T15:16:37;20.20;16.70
3478;DHT22;37937;61.490;23.506;2023-08-12T15:19:03;20.30;16.50
3478;DHT22;37937;61.490;23.506;2023-08-12T15:21:29;20.10;16.50
3478;DHT22;37937;61.490;23.506;2023-08-12T15:23:55;20.10;14.10
3478;DHT22;37937;61.490;23.506;2023-08-12T15:26:21;20.00;13.20
3478;DHT22;37937;61.490;23.506;2023-08-12T15:28:48;20.00;15.30
3478;DHT22;37937;61.490;23.506;2023-08-12T15:31:14;19.90;16.60
3478;DHT22;37937;61.490;23.506;2023-08-12T15:33:40;19.70;15.60
3478;DHT22;37937;61.490;23.506;2023-08-12T15:36:06;19.80;18.40